Time;durP1;ratioP1;P1;durP2;ratioP2;P2;SDS_P1;SDS_P2;PMS_P1;PMS_P2;Temp;Humidity;BMP_temperature;BMP_pressure;BME280_temperature;BME280_humidity;BME280_pressure;Samples;Min_cycle;Max_cycle;Signal;HPM_P1;HPM_P2
2023/01/02 00:01:58;;;;;;;14.20;9.05;;;;;;;;;;5084019;28;20193;-70
2023/01/02 00:04:24;;;;;;;17.38;9.77;;;;;;;;;;5083876;28;20444;-70
2023/01/02 00:06:50;;;;;;;12.55;8.82;;;;;;;;;;5084108;28;20204;-70
2023/01/02 00:09:17;;;;;;;14.43;9.10;;;;;;;;;;5083730;28;20196;-70
2023/01/02 00:11:44;;;;;;;11.98;8.68;;;;;;;;;;5083918;28;20429;-70
2023/01/02 00:14:10;;;;;;;15.77;8.90;;;;;;;;;;5083736;28;20196;-70
2023/01/02 00:16:36;;;;;;;13.15;8.15;;;;;;;;;;5083909;28;20203;-70
2023/01/02 00:19:04;;;;;;;13.77;8.23;;;;;;;;;;5083762;28;20375;-70
2023/01/02 00:21:30;;;;;;;14.13;8.77;;;;;;;;;;5083622;28;20538;-70
2023/01/02 00:23:57;;;;;;;9.38;7.90;;;;;;;;;;5083751;28;20200;-70
2023/01/02 00:26:23;;;;;;;17.10;8.73;;;;;;;;;;5083734;28;20200;-70
2023/01/02 00:28:49;;;;;;;14.95;9.77;;;;;;;;;;5082989;28;20269;-70
2023/01/02 00:31:15;;;;;;;12.30;8.40;;;;;;;;;;5083567;28;20196;-70
2023/01/02 00:33:42;;;;;;;11.52;8.60;;;;;;;;;;5083161;28;20212;-70
2023/01/02 00:36:10;;;;;;;12.00;8.70;;;;;;;;;;5083749;28;20203;-70
2023/01/02 00:38:37;;;;;;;13.70;8.88;;;;;;;;;;5083122;28;20231;-70
2023/01/02 00:41:03;;;;;;;13.57;8.63;;;;;;;;;;5083149;28;20197;-70
2023/01/02 00:43:30;;;;;;;11.70;8.52;;;;;;;;;;5083353;28;20564;-70
2023/01/02 00:45:56;;;;;;;13.38;8.50;;;;;;;;;;5083200;28;20214;-70
2023/01/02 00:48:23;;;;;;;9.70;8.20;;;;;;;;;;5082705;28;20204;-70
2023/01/02 00:50:49;;;;;;;11.80;8.80;;;;;;;;;;5083007;28;20196;-70
2023/01/02 00:53:17;;;;;;;15.98;9.77;;;;;;;;;;5082846;28;20224;-70
2023/01/02 00:55:44;;;;;;;12.43;9.00;;;;;;;;;;5083093;28;20197;-70
2023/01/02 00:58:10;;;;;;;12.75;9.23;;;;;;;;;;5082577;28;20196;-70
2023/01/02 01:00:37;;;;;;;14.50;9.15;;;;;;;;;;5082723;28;20258;-70
2023/01/02 01:03:03;;;;;;;11.18;8.30;;;;;;;;;;5083037;28;20251;-70
2023/01/02 01:05:29;;;;;;;14.18;8.43;;;;;;;;;;5082712;28;20189;-71
2023/01/02 01:07:56;;;;;;;14.85;8.35;;;;;;;;;;5082897;28;20448;-70
2023/01/02 01:10:24;;;;;;;10.20;8.38;;;;;;;;;;5082219;28;20196;-70
2023/01/02 01:12:51;;;;;;;10.98;8.35;;;;;;;;;;5082590;28;20270;-70
2023/01/02 01:15:17;;;;;;;11.10;8.25;;;;;;;;;;5082592;28;20393;-70
2023/01/02 01:17:43;;;;;;;12.88;8.52;;;;;;;;;;5082483;28;20200;-70
2023/01/02 01:20:10;;;;;;;11.65;8.50;;;;;;;;;;5082333;28;20521;-70
2023/01/02 01:22:37;;;;;;;9.25;8.10;;;;;;;;;;5082310;28;20213;-70
2023/01/02 01:25:03;;;;;;;8.88;7.57;;;;;;;;;;5082496;28;20428;-70
2023/01/02 01:27:31;;;;;;;13.98;8.73;;;;;;;;;;5082411;28;20216;-70
2023/01/02 01:29:57;;;;;;;12.50;8.02;;;;;;;;;;5081740;28;20196;-70
2023/01/02 01:32:23;;;;;;;10.68;8.07;;;;;;;;;;5082235;28;20228;-70
2023/01/02 01:34:50;;;;;;;9.18;7.80;;;;;;;;;;5082393;28;20531;-70
2023/01/02 01:37:16;;;;;;;11.98;8.02;;;;;;;;;;5082271;28;20434;-70
2023/01/02 01:39:42;;;;;;;13.63;8.45;;;;;;;;;;5081815;28;20385;-70
2023/01/02 01:42:09;;;;;;;14.38;7.88;;;;;;;;;;5082078;28;20196;-70
2023/01/02 01:44:44;;;;;;;11.82;7.55;;;;;;;;;;5082375;28;20478;-70
2023/01/02 01:47:15;;;;;;;13.75;8.75;;;;;;;;;;5082036;28;20222;-70
2023/01/02 01:49:41;;;;;;;12.98;8.43;;;;;;;;;;5081949;28;20208;-70
2023/01/02 01:52:09;;;;;;;10.13;7.93;;;;;;;;;;5082073;28;20549;-70
2023/01/02 01:54:36;;;;;;;11.23;7.55;;;;;;;;;;5082391;28;20192;-70
2023/01/02 01:57:04;;;;;;;10.60;7.22;;;;;;;;;;5081856;28;20200;-70
2023/01/02 01:59:30;;;;;;;11.95;7.93;;;;;;;;;;5081779;28;20504;-70
2023/01/02 02:01:58;;;;;;;9.35;7.18;;;;;;;;;;5082123;28;20196;-70
2023/01/02 02:04:25;;;;;;;14.02;7.95;;;;;;;;;;5081812;28;20204;-70
2023/01/02 02:06:52;;;;;;;7.40;6.63;;;;;;;;;;5082033;28;20307;-70
2023/01/02 02:09:20;;;;;;;9.70;7.45;;;;;;;;;;5081342;28;20200;-70
2023/01/02 02:11:46;;;;;;;11.57;8.43;;;;;;;;;;5081724;28;20204;-70
2023/01/02 02:14:13;;;;;;;10.45;8.07;;;;;;;;;;5082008;28;20531;-70
2023/01/02 02:16:41;;;;;;;13.60;8.73;;;;;;;;;;5081759;28;20196;-70
2023/01/02 02:19:27;;;;;;;11.30;8.25;;;;;;;;;;5081534;28;20250;-70
2023/01/02 02:22:01;;;;;;;10.00;8.57;;;;;;;;;;5084065;28;20204;-70
2023/01/02 02:27:38;;;;;;;10.25;7.00;;;;;;;;;;5085272;28;20194;-70
2023/01/02 02:30:15;;;;;;;7.88;7.07;;;;;;;;;;5085771;28;20228;-70
2023/01/02 02:32:51;;;;;;;11.05;6.93;;;;;;;;;;5085069;28;20391;-70
2023/01/02 02:35:23;;;;;;;7.88;7.07;;;;;;;;;;5085786;28;20200;-70
2023/01/02 02:37:52;;;;;;;11.05;6.95;;;;;;;;;;5085666;28;20203;-70
2023/01/02 02:40:19;;;;;;;10.98;7.97;;;;;;;;;;5085283;28;20426;-70
2023/01/02 02:42:50;;;;;;;14.10;7.60;;;;;;;;;;5085521;28;20192;-70
2023/01/02 02:45:23;;;;;;;9.63;7.68;;;;;;;;;;5085375;28;20398;-70
2023/01/02 02:47:51;;;;;;;8.32;7.40;;;;;;;;;;5085504;28;20542;-70
2023/01/02 02:50:22;;;;;;;10.32;7.90;;;;;;;;;;5085144;28;20196;-70
2023/01/02 02:52:51;;;;;;;12.15;8.07;;;;;;;;;;5085198;28;20450;-70
2023/01/02 02:55:21;;;;;;;15.18;8.48;;;;;;;;;;5085142;28;20200;-70
2023/01/02 02:57:48;;;;;;;10.38;8.50;;;;;;;;;;5084952;28;20211;-70
2023/01/02 03:00:50;;;;;;;10.05;8.57;;;;;;;;;;5085042;28;20371;-70
2023/01/02 03:03:19;;;;;;;12.32;8.23;;;;;;;;;;5084586;28;20525;-70
2023/01/02 03:05:52;;;;;;;12.48;8.23;;;;;;;;;;5085308;28;20356;-70
2023/01/02 03:08:22;;;;;;;11.77;7.97;;;;;;;;;;5084783;28;20204;-70
2023/01/02 03:10:49;;;;;;;13.38;7.03;;;;;;;;;;5084976;28;20196;-70
2023/01/02 03:13:21;;;;;;;8.88;7.35;;;;;;;;;;5084855;28;20223;-70
2023/01/02 03:15:52;;;;;;;12.68;7.38;;;;;;;;;;5085159;28;20196;-70
2023/01/02 03:18:23;;;;;;;8.43;6.95;;;;;;;;;;5084818;28;20196;-70
2023/01/02 03:20:55;;;;;;;11.90;7.95;;;;;;;;;;5084552;28;20204;-70
2023/01/02 03:23:23;;;;;;;10.38;6.88;;;;;;;;;;5084785;28;20199;-70
2023/01/02 03:25:50;;;;;;;8.95;6.75;;;;;;;;;;5084571;28;20196;-70
2023/01/02 03:28:18;;;;;;;10.02;6.80;;;;;;;;;;5084248;28;20251;-70
2023/01/02 03:30:45;;;;;;;11.60;7.25;;;;;;;;;;5084765;28;20414;-70
2023/01/02 03:33:14;;;;;;;9.05;6.68;;;;;;;;;;5084294;28;20211;-70
2023/01/02 03:35:43;;;;;;;11.05;6.90;;;;;;;;;;5084510;28;20209;-70
2023/01/02 03:38:13;;;;;;;7.60;6.72;;;;;;;;;;5084304;28;20200;-70
2023/01/02 03:40:42;;;;;;;8.80;6.80;;;;;;;;;;5084308;28;20196;-70
2023/01/02 03:43:10;;;;;;;10.30;7.15;;;;;;;;;;5084506;28;20225;-70
2023/01/02 03:45:40;;;;;;;9.35;7.15;;;;;;;;;;5084500;28;20408;-70
2023/01/02 03:48:09;;;;;;;11.18;7.20;;;;;;;;;;5084090;28;20200;-70
2023/01/02 03:50:40;;;;;;;13.40;7.93;;;;;;;;;;5084144;28;20204;-70
2023/01/02 03:53:07;;;;;;;10.30;7.35;;;;;;;;;;5084048;28;20216;-70
2023/01/02 03:55:36;;;;;;;10.05;7.57;;;;;;;;;;5084336;28;20438;-70
2023/01/02 03:58:08;;;;;;;9.05;6.97;;;;;;;;;;5083958;28;20197;-70
2023/01/02 04:00:36;;;;;;;9.77;7.72;;;;;;;;;;5084101;28;20211;-70
2023/01/02 04:03:04;;;;;;;11.55;6.95;;;;;;;;;;5083934;28;20219;-70
2023/01/02 04:05:35;;;;;;;9.65;6.25;;;;;;;;;;5083769;28;20205;-70
2023/01/02 04:08:03;;;;;;;10.48;6.55;;;;;;;;;;5083815;28;20196;-70
2023/01/02 04:10:31;;;;;;;7.63;5.90;;;;;;;;;;5083984;28;20246;-70
2023/01/02 04:12:59;;;;;;;13.27;6.60;;;;;;;;;;5083610;28;20216;-70
2023/01/02 04:15:27;;;;;;;10.02;6.50;;;;;;;;;;5083759;28;20212;-69
2023/01/02 04:17:56;;;;;;;8.05;6.43;;;;;;;;;;5083684;28;20231;-69
2023/01/02 04:20:25;;;;;;;9.15;6.32;;;;;;;;;;5083256;28;20211;-69
2023/01/02 04:22:53;;;;;;;9.73;6.50;;;;;;;;;;5083441;28;20399;-69
2023/01/02 04:25:20;;;;;;;8.50;6.45;;;;;;;;;;5083515;28;20196;-69
2023/01/02 04:27:50;;;;;;;8.90;6.50;;;;;;;;;;5083394;28;20287;-69
2023/01/02 04:30:16;;;;;;;8.65;6.25;;;;;;;;;;5083208;28;20196;-69
2023/01/02 04:32:43;;;;;;;8.43;6.10;;;;;;;;;;5083174;28;20196;-69
2023/01/02 04:35:10;;;;;;;8.15;6.05;;;;;;;;;;5083224;28;20204;-69
2023/01/02 04:37:37;;;;;;;10.38;6.18;;;;;;;;;;5083479;28;20202;-69
2023/01/02 04:40:05;;;;;;;11.15;6.63;;;;;;;;;;5083068;28;20196;-69
2023/01/02 04:42:32;;;;;;;11.75;6.35;;;;;;;;;;5083169;28;20503;-69
2023/01/02 04:44:59;;;;;;;8.65;6.13;;;;;;;;;;5082415;28;20201;-69
2023/01/02 04:47:26;;;;;;;8.55;6.68;;;;;;;;;;5082894;28;20203;-71
2023/01/02 04:49:52;;;;;;;8.35;6.00;;;;;;;;;;5083005;28;20197;-70
2023/01/02 04:52:18;;;;;;;6.95;6.15;;;;;;;;;;5083108;28;20504;-70
2023/01/02 04:54:44;;;;;;;8.80;6.55;;;;;;;;;;5082813;28;20397;-70
2023/01/02 04:57:11;;;;;;;6.65;5.97;;;;;;;;;;5083028;28;20267;-70
2023/01/02 04:59:37;;;;;;;7.47;6.05;;;;;;;;;;5082601;28;20197;-70
2023/01/02 05:02:05;;;;;;;9.70;6.32;;;;;;;;;;5082780;28;20204;-70
2023/01/02 05:04:31;;;;;;;6.25;5.68;;;;;;;;;;5082548;28;20207;-70
2023/01/02 05:06:57;;;;;;;7.05;5.70;;;;;;;;;;5082773;28;20203;-71
2023/01/02 05:09:23;;;;;;;8.55;5.88;;;;;;;;;;5082590;28;20204;-70
2023/01/02 05:11:50;;;;;;;8.10;5.75;;;;;;;;;;5082562;28;20204;-70
2023/01/02 05:14:16;;;;;;;8.90;5.78;;;;;;;;;;5082471;28;20216;-70
2023/01/02 05:16:42;;;;;;;8.40;6.10;;;;;;;;;;5082311;28;20492;-70
2023/01/02 05:19:10;;;;;;;10.15;5.32;;;;;;;;;;5082493;28;20458;-70
2023/01/02 05:24:20;;;;;;;8.68;5.85;;;;;;;;;;5082441;28;20268;-70
2023/01/02 05:26:46;;;;;;;6.43;5.28;;;;;;;;;;5082209;28;20484;-70
2023/01/02 05:29:12;;;;;;;6.63;4.85;;;;;;;;;;5081968;28;20223;-70
2023/01/02 05:31:39;;;;;;;5.68;5.15;;;;;;;;;;5082394;28;20196;-70
2023/01/02 05:34:05;;;;;;;8.15;5.60;;;;;;;;;;5082340;28;20556;-70
2023/01/02 05:36:33;;;;;;;8.85;5.13;;;;;;;;;;5082274;28;20200;-71
2023/01/02 05:39:00;;;;;;;7.35;4.93;;;;;;;;;;5081993;28;20203;-70
2023/01/02 05:41:26;;;;;;;7.05;5.30;;;;;;;;;;5082078;28;20192;-70
2023/01/02 05:43:54;;;;;;;6.05;5.22;;;;;;;;;;5082106;28;20199;-70
2023/01/02 05:46:20;;;;;;;7.57;5.53;;;;;;;;;;5082118;28;20287;-71
2023/01/02 05:48:47;;;;;;;8.13;5.22;;;;;;;;;;5081701;28;20196;-70
2023/01/02 05:51:14;;;;;;;6.68;5.03;;;;;;;;;;5081622;28;20204;-70
2023/01/02 05:53:42;;;;;;;5.70;4.68;;;;;;;;;;5081637;28;20251;-70
2023/01/02 05:56:09;;;;;;;7.28;4.82;;;;;;;;;;5080484;28;20200;-70
2023/01/02 05:58:36;;;;;;;10.77;4.90;;;;;;;;;;5081451;28;20393;-70
2023/01/02 06:01:06;;;;;;;6.78;4.85;;;;;;;;;;5081620;28;20196;-70
2023/01/02 06:03:32;;;;;;;9.50;5.03;;;;;;;;;;5081596;28;20192;-70
2023/01/02 06:06:02;;;;;;;9.05;5.22;;;;;;;;;;5081560;28;20222;-70
2023/01/02 06:08:28;;;;;;;8.32;5.65;;;;;;;;;;5081186;28;20196;-70
2023/01/02 06:10:56;;;;;;;10.43;5.50;;;;;;;;;;5081380;28;20240;-70
2023/01/02 06:13:22;;;;;;;8.98;5.53;;;;;;;;;;5081784;28;20196;-70
2023/01/02 06:15:48;;;;;;;8.02;5.30;;;;;;;;;;5081514;28;20204;-70
2023/01/02 06:18:14;;;;;;;6.18;4.97;;;;;;;;;;5081046;28;20199;-70
2023/01/02 06:20:41;;;;;;;7.13;4.85;;;;;;;;;;5081298;28;20196;-70
2023/01/02 06:23:07;;;;;;;6.00;4.40;;;;;;;;;;5081014;28;20496;-70
2023/01/02 06:25:33;;;;;;;5.88;5.15;;;;;;;;;;5062407;28;20205;-70
2023/01/02 06:28:01;;;;;;;7.07;4.70;;;;;;;;;;5061636;28;20254;-70
2023/01/02 06:30:27;;;;;;;6.72;4.82;;;;;;;;;;5074202;28;20220;-70
2023/01/02 06:32:55;;;;;;;6.22;5.20;;;;;;;;;;5073874;28;20204;-70
2023/01/02 06:35:21;;;;;;;6.53;5.18;;;;;;;;;;5062392;28;20248;-70
2023/01/02 06:37:47;;;;;;;7.28;4.95;;;;;;;;;;5071086;28;20431;-70
2023/01/02 06:40:14;;;;;;;11.13;5.60;;;;;;;;;;5071592;28;20212;-70
2023/01/02 06:42:42;;;;;;;8.20;5.70;;;;;;;;;;5074539;28;20208;-70
2023/01/02 06:45:11;;;;;;;9.65;5.43;;;;;;;;;;5071148;28;20205;-70
2023/01/02 06:47:37;;;;;;;9.73;6.15;;;;;;;;;;5073016;28;20407;-70
2023/01/02 06:50:04;;;;;;;9.73;5.80;;;;;;;;;;5073166;28;20218;-69
2023/01/02 06:52:30;;;;;;;11.07;6.80;;;;;;;;;;5072960;28;20470;-69
2023/01/02 06:55:14;;;;;;;10.02;6.82;;;;;;;;;;5076978;28;20224;-70
2023/01/02 06:57:41;;;;;;;8.70;5.90;;;;;;;;;;5080514;28;20215;-70
2023/01/02 07:00:08;;;;;;;11.82;6.57;;;;;;;;;;5073324;28;20219;-62
2023/01/02 07:02:35;;;;;;;13.07;6.63;;;;;;;;;;5073906;28;20409;-62
2023/01/02 07:05:02;;;;;;;9.88;7.57;;;;;;;;;;5073660;28;20367;-61
2023/01/02 07:07:28;;;;;;;12.15;6.85;;;;;;;;;;5075579;28;20208;-60
2023/01/02 07:09:56;;;;;;;9.05;6.00;;;;;;;;;;5077025;28;20216;-60
2023/01/02 07:12:22;;;;;;;8.60;6.68;;;;;;;;;;5077696;28;20425;-60
2023/01/02 07:14:48;;;;;;;10.32;6.28;;;;;;;;;;5077419;28;20235;-60
2023/01/02 07:17:14;;;;;;;9.55;6.00;;;;;;;;;;5077333;28;20711;-60
2023/01/02 07:19:42;;;;;;;11.27;6.30;;;;;;;;;;5076643;28;20289;-61
2023/01/02 07:22:08;;;;;;;10.48;6.53;;;;;;;;;;5077938;28;20488;-61
2023/01/02 07:24:34;;;;;;;12.05;6.40;;;;;;;;;;5077155;28;20200;-60
2023/01/02 07:27:01;;;;;;;8.98;5.43;;;;;;;;;;5077444;28;20220;-60
2023/01/02 07:29:27;;;;;;;7.30;5.80;;;;;;;;;;5078014;28;20512;-60
2023/01/02 07:31:53;;;;;;;9.70;5.78;;;;;;;;;;5078518;28;20212;-60
2023/01/02 07:34:20;;;;;;;8.43;5.60;;;;;;;;;;5079010;28;20232;-60
2023/01/02 07:36:47;;;;;;;8.80;6.20;;;;;;;;;;5078052;28;20219;-60
2023/01/02 07:39:14;;;;;;;12.32;6.60;;;;;;;;;;5078901;28;20212;-60
2023/01/02 07:41:40;;;;;;;9.73;6.70;;;;;;;;;;5078414;28;20204;-60
2023/01/02 07:44:06;;;;;;;12.55;7.25;;;;;;;;;;5078916;28;20405;-60
2023/01/02 07:46:33;;;;;;;13.20;8.15;;;;;;;;;;5077146;28;20648;-60
2023/01/02 07:48:59;;;;;;;9.65;7.45;;;;;;;;;;5077456;28;20423;-61
2023/01/02 07:51:25;;;;;;;10.80;7.38;;;;;;;;;;5077001;28;20235;-61
2023/01/02 07:53:53;;;;;;;13.77;8.15;;;;;;;;;;5077205;28;20208;-61
2023/01/02 07:56:19;;;;;;;9.73;7.50;;;;;;;;;;5077914;28;20216;-61
2023/01/02 07:58:46;;;;;;;9.40;7.22;;;;;;;;;;5078491;28;20516;-61
2023/01/02 08:01:12;;;;;;;7.53;6.72;;;;;;;;;;5078144;28;20212;-61
2023/01/02 08:03:39;;;;;;;10.27;7.70;;;;;;;;;;5077585;28;20212;-60
2023/01/02 08:06:06;;;;;;;11.02;6.22;;;;;;;;;;5076055;28;20212;-60
2023/01/02 08:08:33;;;;;;;9.23;6.82;;;;;;;;;;5077402;28;20212;-60
2023/01/02 08:11:02;;;;;;;10.93;7.47;;;;;;;;;;5075883;28;20437;-61
2023/01/02 08:13:29;;;;;;;10.32;6.57;;;;;;;;;;5076060;28;20481;-60
2023/01/02 08:15:55;;;;;;;11.35;6.65;;;;;;;;;;5076477;28;20228;-63
2023/01/02 08:18:21;;;;;;;10.13;7.18;;;;;;;;;;5075353;28;20567;-63
2023/01/02 08:20:47;;;;;;;10.75;6.85;;;;;;;;;;5077278;28;20386;-63
2023/01/02 08:23:14;;;;;;;14.82;7.57;;;;;;;;;;5076780;28;20223;-63
2023/01/02 08:25:40;;;;;;;11.85;6.90;;;;;;;;;;5076486;28;20208;-62
2023/01/02 08:28:07;;;;;;;14.00;7.43;;;;;;;;;;5076517;28;20232;-61
2023/01/02 08:30:34;;;;;;;11.00;6.47;;;;;;;;;;5076481;28;20208;-61
2023/01/02 08:33:00;;;;;;;8.85;7.05;;;;;;;;;;5077114;28;20544;-61
2023/01/02 08:35:27;;;;;;;10.23;6.53;;;;;;;;;;5076187;28;20430;-61
2023/01/02 08:38:14;;;;;;;9.60;6.65;;;;;;;;;;5076163;28;20219;-60
2023/01/02 08:40:40;;;;;;;12.52;7.57;;;;;;;;;;5075320;28;20219;-60
2023/01/02 08:43:08;;;;;;;11.30;6.70;;;;;;;;;;5077359;28;20212;-60
2023/01/02 08:45:34;;;;;;;11.27;7.13;;;;;;;;;;5076062;28;20391;-60
2023/01/02 08:48:00;;;;;;;11.93;6.95;;;;;;;;;;5077081;28;20543;-61
2023/01/02 08:50:27;;;;;;;12.77;7.28;;;;;;;;;;5077069;28;20204;-60
2023/01/02 08:52:53;;;;;;;13.75;7.32;;;;;;;;;;5076272;28;20212;-61
2023/01/02 08:55:19;;;;;;;10.30;6.13;;;;;;;;;;5075479;28;20259;-60
2023/01/02 08:57:46;;;;;;;10.25;6.43;;;;;;;;;;5075611;28;20262;-61
2023/01/02 09:00:14;;;;;;;8.38;6.32;;;;;;;;;;5075097;28;20216;-60
2023/01/02 09:02:40;;;;;;;10.35;6.60;;;;;;;;;;5076142;28;20241;-61
2023/01/02 09:05:06;;;;;;;7.45;6.22;;;;;;;;;;5076680;28;20549;-61
2023/01/02 09:07:33;;;;;;;6.95;5.68;;;;;;;;;;5076061;28;20223;-60
2023/01/02 09:09:59;;;;;;;12.80;6.40;;;;;;;;;;5076030;28;20213;-60
2023/01/02 09:12:25;;;;;;;8.35;6.28;;;;;;;;;;5075367;28;20258;-60
2023/01/02 09:14:51;;;;;;;8.07;6.13;;;;;;;;;;5074853;28;20230;-60
2023/01/02 09:17:19;;;;;;;9.38;6.32;;;;;;;;;;5075509;28;20208;-60
2023/01/02 09:19:45;;;;;;;12.65;6.70;;;;;;;;;;5075667;28;20212;-61
2023/01/02 09:22:12;;;;;;;8.95;5.90;;;;;;;;;;5076220;28;20220;-60
2023/01/02 09:24:38;;;;;;;10.63;7.25;;;;;;;;;;5077403;28;20214;-60
2023/01/02 09:27:04;;;;;;;12.30;7.07;;;;;;;;;;5076823;28;20216;-60
2023/01/02 09:29:30;;;;;;;11.32;6.88;;;;;;;;;;5075163;28;20219;-60
2023/01/02 09:31:57;;;;;;;13.93;7.18;;;;;;;;;;5075899;28;20420;-60
2023/01/02 09:34:24;;;;;;;12.18;6.70;;;;;;;;;;5076431;28;20219;-60
2023/01/02 09:36:51;;;;;;;10.10;7.82;;;;;;;;;;5075785;28;20240;-61
2023/01/02 09:39:17;;;;;;;14.82;7.32;;;;;;;;;;5075576;28;20531;-61
2023/01/02 09:41:44;;;;;;;13.68;7.22;;;;;;;;;;5075754;28;20212;-60
2023/01/02 09:44:13;;;;;;;17.05;8.93;;;;;;;;;;5076048;28;20212;-60
2023/01/02 09:46:41;;;;;;;16.00;8.50;;;;;;;;;;5075642;28;20219;-61
2023/01/02 09:49:11;;;;;;;12.93;8.35;;;;;;;;;;5076327;28;20215;-61
2023/01/02 09:51:39;;;;;;;13.95;7.70;;;;;;;;;;5075320;28;20441;-60
2023/01/02 09:54:06;;;;;;;19.48;8.95;;;;;;;;;;5075734;28;20212;-60
2023/01/02 09:56:37;;;;;;;16.98;9.07;;;;;;;;;;5075259;28;20239;-61
2023/01/02 09:59:07;;;;;;;19.08;8.32;;;;;;;;;;5074366;28;20232;-60
2023/01/02 10:01:37;;;;;;;14.98;8.00;;;;;;;;;;5075489;28;20257;-60
2023/01/02 10:04:07;;;;;;;19.92;9.10;;;;;;;;;;5074581;28;20449;-60
2023/01/02 10:06:38;;;;;;;13.50;8.05;;;;;;;;;;5074642;28;20211;-60
2023/01/02 10:09:08;;;;;;;18.08;8.05;;;;;;;;;;5075085;28;20253;-61
2023/01/02 10:11:42;;;;;;;20.35;8.98;;;;;;;;;;5075214;28;20227;-61
2023/01/02 10:14:13;;;;;;;16.98;9.10;;;;;;;;;;5075176;28;20204;-60
2023/01/02 10:16:41;;;;;;;11.63;8.05;;;;;;;;;;5073693;28;20297;-60
2023/01/02 10:19:12;;;;;;;16.60;8.20;;;;;;;;;;5074906;28;20212;-60
2023/01/02 10:21:39;;;;;;;12.98;8.50;;;;;;;;;;5070588;28;20222;-61
2023/01/02 10:24:11;;;;;;;11.35;7.28;;;;;;;;;;5073681;28;20441;-61
2023/01/02 10:26:41;;;;;;;15.77;7.75;;;;;;;;;;5073911;28;20819;-61
2023/01/02 10:29:12;;;;;;;14.63;8.52;;;;;;;;;;5073652;28;20618;-61
2023/01/02 10:31:40;;;;;;;13.23;7.68;;;;;;;;;;5074930;28;20212;-61
2023/01/02 10:34:11;;;;;;;10.57;7.07;;;;;;;;;;5074265;28;20216;-61
2023/01/02 10:36:40;;;;;;;16.13;7.78;;;;;;;;;;5074325;28;20575;-62
2023/01/02 10:39:09;;;;;;;18.02;7.30;;;;;;;;;;5074470;28;20555;-62
2023/01/02 10:41:35;;;;;;;10.27;6.10;;;;;;;;;;5075351;28;20547;-62
2023/01/02 10:44:03;;;;;;;11.10;5.63;;;;;;;;;;5078455;28;20219;-61
2023/01/02 10:46:31;;;;;;;12.02;5.38;;;;;;;;;;5078278;28;20408;-62
2023/01/02 10:48:57;;;;;;;11.55;5.60;;;;;;;;;;5077943;28;20787;-62
2023/01/02 10:51:23;;;;;;;9.85;5.53;;;;;;;;;;5078552;28;20309;-61
2023/01/02 10:53:59;;;;;;;8.10;5.40;;;;;;;;;;5077937;28;20217;-61
2023/01/02 10:56:30;;;;;;;10.68;5.50;;;;;;;;;;5077256;28;20232;-61
2023/01/02 10:58:56;;;;;;;5.20;4.72;;;;;;;;;;5078045;28;20212;-61
2023/01/02 11:01:22;;;;;;;9.25;4.78;;;;;;;;;;5077869;28;20553;-62
2023/01/02 11:04:08;;;;;;;10.45;4.78;;;;;;;;;;5078234;28;20279;-62
2023/01/02 11:06:35;;;;;;;9.13;4.82;;;;;;;;;;5077951;28;20287;-61
2023/01/02 11:09:03;;;;;;;9.43;5.45;;;;;;;;;;5078345;28;20200;-62
2023/01/02 11:11:31;;;;;;;8.07;4.68;;;;;;;;;;5078568;28;20203;-61
2023/01/02 11:14:05;;;;;;;9.43;4.68;;;;;;;;;;5077564;28;20433;-61
2023/01/02 11:16:32;;;;;;;11.27;4.70;;;;;;;;;;5078006;28;20466;-61
2023/01/02 11:19:00;;;;;;;4.78;4.05;;;;;;;;;;5078314;28;20231;-63
2023/01/02 11:21:28;;;;;;;8.25;4.13;;;;;;;;;;5078748;28;20216;-62
2023/01/02 11:23:58;;;;;;;10.80;4.90;;;;;;;;;;5077299;28;20230;-61
2023/01/02 11:26:24;;;;;;;9.35;4.53;;;;;;;;;;5077998;28;20209;-62
2023/01/02 11:28:53;;;;;;;7.72;3.75;;;;;;;;;;5077500;28;20227;-62
2023/01/02 11:31:20;;;;;;;6.10;3.95;;;;;;;;;;5078667;28;20204;-61
2023/01/02 11:33:46;;;;;;;10.80;4.40;;;;;;;;;;5078438;28;20785;-61
2023/01/02 11:36:16;;;;;;;8.52;4.18;;;;;;;;;;5077541;28;20228;-62
2023/01/02 11:38:44;;;;;;;8.60;4.13;;;;;;;;;;5077276;28;20212;-61
2023/01/02 11:41:21;;;;;;;7.18;4.25;;;;;;;;;;5078319;28;20616;-62
2023/01/02 11:43:51;;;;;;;6.70;4.00;;;;;;;;;;5077635;28;20543;-62
2023/01/02 11:46:27;;;;;;;7.95;4.30;;;;;;;;;;5077469;28;20200;-62
2023/01/02 11:48:55;;;;;;;8.73;4.20;;;;;;;;;;5064092;28;20203;-62
2023/01/02 11:51:21;;;;;;;5.57;3.95;;;;;;;;;;5077910;28;20204;-61
2023/01/02 11:53:51;;;;;;;7.82;4.00;;;;;;;;;;5077578;28;20211;-60
2023/01/02 11:56:19;;;;;;;8.82;4.03;;;;;;;;;;5077077;28;20586;-60
2023/01/02 11:58:48;;;;;;;8.85;4.38;;;;;;;;;;5076913;28;20216;-61
2023/01/02 12:01:18;;;;;;;9.55;4.38;;;;;;;;;;5076953;28;20530;-63
2023/01/02 12:03:46;;;;;;;4.65;4.22;;;;;;;;;;5077978;28;20220;-63
2023/01/02 12:06:14;;;;;;;7.88;3.65;;;;;;;;;;5077184;28;20207;-63
2023/01/02 12:08:47;;;;;;;3.80;3.28;;;;;;;;;;5076732;28;20212;-63
2023/01/02 12:11:16;;;;;;;6.55;3.53;;;;;;;;;;5076723;28;20843;-62
2023/01/02 12:13:51;;;;;;;7.25;3.67;;;;;;;;;;5077680;28;20211;-64
2023/01/02 12:16:33;;;;;;;5.72;3.13;;;;;;;;;;5073858;28;20396;-64
2023/01/02 12:19:13;;;;;;;8.05;3.60;;;;;;;;;;5076728;28;20266;-64
2023/01/02 12:21:44;;;;;;;6.55;3.47;;;;;;;;;;5076848;28;20581;-64
2023/01/02 12:24:43;;;;;;;6.55;3.33;;;;;;;;;;5077904;28;20516;-64
2023/01/02 12:27:13;;;;;;;7.05;3.50;;;;;;;;;;5016137;28;20414;-64
2023/01/02 12:29:44;;;;;;;4.40;3.30;;;;;;;;;;5014832;28;20592;-64
2023/01/02 12:32:31;;;;;;;6.13;3.90;;;;;;;;;;5045700;28;20213;-64
2023/01/02 12:35:07;;;;;;;7.50;3.33;;;;;;;;;;5075182;28;20226;-65
2023/01/02 12:37:38;;;;;;;8.32;3.38;;;;;;;;;;5072158;28;20212;-65
2023/01/02 12:40:06;;;;;;;6.05;3.50;;;;;;;;;;5065091;28;20625;-65
2023/01/02 12:42:45;;;;;;;4.18;2.58;;;;;;;;;;5064462;28;20198;-64
2023/01/02 12:45:16;;;;;;;7.45;3.20;;;;;;;;;;5059688;28;20292;-64
2023/01/02 12:47:52;;;;;;;5.45;3.15;;;;;;;;;;5075159;28;20243;-61
2023/01/02 12:50:32;;;;;;;5.25;3.00;;;;;;;;;;5075567;28;20211;-59
2023/01/02 12:53:04;;;;;;;4.30;3.05;;;;;;;;;;5075152;28;20603;-60
2023/01/02 12:55:37;;;;;;;4.75;2.97;;;;;;;;;;5075415;28;20224;-60
2023/01/02 12:58:06;;;;;;;4.97;3.28;;;;;;;;;;5076130;28;20426;-60
2023/01/02 13:00:39;;;;;;;5.53;3.10;;;;;;;;;;5076507;28;20212;-60
2023/01/02 13:03:27;;;;;;;5.15;3.17;;;;;;;;;;5075515;28;20200;-60
2023/01/02 13:05:57;;;;;;;6.22;2.95;;;;;;;;;;5075210;28;20212;-60
2023/01/02 13:08:26;;;;;;;7.43;2.80;;;;;;;;;;5067252;28;20297;-60
2023/01/02 13:10:54;;;;;;;4.65;2.75;;;;;;;;;;5076181;28;20218;-60
2023/01/02 13:13:31;;;;;;;5.90;2.75;;;;;;;;;;5075525;28;20439;-60
2023/01/02 13:16:01;;;;;;;6.88;2.80;;;;;;;;;;5075057;28;20426;-60
2023/01/02 13:18:29;;;;;;;9.35;3.15;;;;;;;;;;5075944;28;20212;-61
2023/01/02 13:21:00;;;;;;;6.70;2.63;;;;;;;;;;5075375;28;20238;-60
2023/01/02 13:23:30;;;;;;;6.10;2.58;;;;;;;;;;5075430;28;20196;-61
2023/01/02 13:25:57;;;;;;;4.45;2.45;;;;;;;;;;5074778;28;20235;-61
2023/01/02 13:28:24;;;;;;;8.45;2.83;;;;;;;;;;5075965;28;20228;-61
2023/01/02 13:30:58;;;;;;;4.50;2.80;;;;;;;;;;5075718;28;20212;-61
2023/01/02 13:33:28;;;;;;;4.65;2.45;;;;;;;;;;5075189;28;20207;-61
2023/01/02 13:35:55;;;;;;;4.10;2.42;;;;;;;;;;5074715;28;20474;-60
2023/01/02 13:38:27;;;;;;;6.90;2.60;;;;;;;;;;5074928;28;20216;-61
2023/01/02 13:40:55;;;;;;;8.38;2.97;;;;;;;;;;5076256;28;20227;-61
2023/01/02 13:43:23;;;;;;;5.70;2.65;;;;;;;;;;5075593;28;20212;-61
2023/01/02 13:45:51;;;;;;;6.78;2.40;;;;;;;;;;5074666;28;20219;-61
2023/01/02 13:48:20;;;;;;;4.47;2.50;;;;;;;;;;5075269;28;20212;-63
2023/01/02 13:50:46;;;;;;;6.28;2.55;;;;;;;;;;5074966;28;20461;-61
2023/01/02 13:53:24;;;;;;;2.92;2.35;;;;;;;;;;5074565;28;20212;-61
2023/01/02 13:56:02;;;;;;;2.72;2.17;;;;;;;;;;5074585;28;20227;-63
2023/01/02 13:58:39;;;;;;;7.15;2.60;;;;;;;;;;5074882;28;20515;-62
2023/01/02 14:01:24;;;;;;;6.40;2.50;;;;;;;;;;5074940;28;20212;-61
2023/01/02 14:04:11;;;;;;;4.82;2.30;;;;;;;;;;5075240;28;20227;-61
2023/01/02 14:06:38;;;;;;;4.93;2.20;;;;;;;;;;5074158;28;20516;-61
2023/01/02 14:09:09;;;;;;;7.35;2.28;;;;;;;;;;5075010;28;20460;-61
2023/01/02 14:11:39;;;;;;;7.32;2.30;;;;;;;;;;5074409;28;20434;-61
2023/01/02 14:14:08;;;;;;;8.05;2.35;;;;;;;;;;5074069;28;20216;-60
2023/01/02 14:16:57;;;;;;;7.90;3.38;;;;;;;;;;5074311;28;20228;-60
2023/01/02 14:19:24;;;;;;;6.25;2.88;;;;;;;;;;5079614;28;20516;-61
2023/01/02 14:21:52;;;;;;;6.53;3.10;;;;;;;;;;5078479;28;20561;-61
2023/01/02 14:24:32;;;;;;;7.47;2.70;;;;;;;;;;5078999;28;20528;-62
2023/01/02 14:27:01;;;;;;;8.00;2.63;;;;;;;;;;5077664;28;20204;-61
2023/01/02 14:29:28;;;;;;;10.95;2.47;;;;;;;;;;5074666;28;20530;-61
2023/01/02 14:32:02;;;;;;;7.13;3.00;;;;;;;;;;5077756;28;20458;-62
2023/01/02 14:34:28;;;;;;;6.85;2.95;;;;;;;;;;5078401;28;20216;-62
2023/01/02 14:36:56;;;;;;;8.77;2.88;;;;;;;;;;5077524;28;20558;-62
2023/01/02 14:39:24;;;;;;;6.78;3.63;;;;;;;;;;5078808;28;20212;-62
2023/01/02 14:45:07;;;;;;;9.00;2.88;;;;;;;;;;5016180;28;20662;-61
2023/01/02 14:47:35;;;;;;;12.18;2.70;;;;;;;;;;5060614;28;20448;-61
2023/01/02 14:50:02;;;;;;;8.25;2.47;;;;;;;;;;5078099;28;20236;-60
2023/01/02 14:52:30;;;;;;;7.50;2.83;;;;;;;;;;5079009;28;20212;-62
2023/01/02 14:55:01;;;;;;;9.40;2.53;;;;;;;;;;5078088;28;20550;-61